Time;durP1;ratioP1;P1;durP2;ratioP2;P2;SDS_P1;SDS_P2;PMS_P1;PMS_P2;Temp;Humidity;BMP_temperature;BMP_pressure;BME280_temperature;BME280_humidity;BME280_pressure;Samples;Min_cycle;Max_cycle;Signal;HPM_P1;HPM_P2
2022/03/06 00:02:19;;;;;;;5.70;3.55;;;;;;;-0.47;100.00;102255.28;6124791;28;20063;-81
2022/03/06 00:05:20;;;;;;;4.30;2.92;;;;;;;-0.45;100.00;102256.19;6125511;29;20058;-81
2022/03/06 00:08:22;;;;;;;2.65;1.73;;;;;;;-0.40;100.00;102249.38;6125356;29;20423;-79
2022/03/06 00:11:24;;;;;;;7.47;3.10;;;;;;;-0.37;100.00;102254.56;6124854;29;20063;-79
2022/03/06 00:14:26;;;;;;;5.72;3.05;;;;;;;-0.35;100.00;102259.78;6125068;29;20059;-79
2022/03/06 00:17:28;;;;;;;4.18;2.97;;;;;;;-0.31;100.00;102249.53;6124894;29;20051;-80
2022/03/06 00:20:29;;;;;;;5.47;2.05;;;;;;;-0.31;100.00;102259.00;6124438;29;20044;-82
2022/03/06 00:23:30;;;;;;;7.63;3.28;;;;;;;-0.30;100.00;102256.41;6124802;29;20044;-79
2022/03/06 00:26:34;;;;;;;6.60;3.22;;;;;;;-0.30;100.00;102251.25;6124938;29;20058;-80
2022/03/06 00:29:36;;;;;;;4.85;2.58;;;;;;;-0.29;100.00;102254.69;6124907;29;20051;-82
2022/03/06 00:32:37;;;;;;;3.22;1.80;;;;;;;-0.28;100.00;102254.72;6124674;29;20052;-81
2022/03/06 00:35:39;;;;;;;4.32;2.55;;;;;;;-0.27;100.00;102259.06;6125043;29;20055;-82
2022/03/06 00:38:40;;;;;;;3.55;2.17;;;;;;;-0.27;100.00;102255.63;6124964;29;20059;-81
2022/03/06 00:41:43;;;;;;;4.03;2.22;;;;;;;-0.26;100.00;102255.63;6124082;29;20043;-83
2022/03/06 00:44:44;;;;;;;7.22;2.78;;;;;;;-0.30;100.00;102261.59;6124776;29;20051;-80
2022/03/06 00:47:47;;;;;;;3.13;1.83;;;;;;;-0.29;100.00;102260.72;6157052;28;20056;-80
2022/03/06 00:50:48;;;;;;;3.80;2.28;;;;;;;-0.30;100.00;102263.31;6184394;28;20049;-82
2022/03/06 00:53:50;;;;;;;4.28;2.70;;;;;;;-0.24;100.00;102263.38;6237925;28;20049;-80
2022/03/06 00:56:53;;;;;;;4.07;2.28;;;;;;;-0.15;100.00;102266.09;6207072;28;20057;-82
2022/03/06 00:59:54;;;;;;;6.82;3.22;;;;;;;-0.14;100.00;102265.25;6248562;28;20046;-81
2022/03/06 01:02:55;;;;;;;3.97;2.45;;;;;;;-0.13;100.00;102271.31;6184988;28;20557;-80
2022/03/06 01:05:56;;;;;;;2.47;1.52;;;;;;;-0.09;100.00;102270.50;6231979;28;20053;-80
2022/03/06 01:08:58;;;;;;;8.27;3.22;;;;;;;-0.01;100.00;102279.25;6248292;28;20054;-80
2022/03/06 01:12:01;;;;;;;8.27;1.35;;;;;;;0.11;100.00;102278.56;6247641;28;20052;-80
2022/03/06 01:15:02;;;;;;;3.55;1.52;;;;;;;0.20;100.00;102289.91;6248128;28;20046;-80
2022/03/06 01:18:05;;;;;;;3.80;2.35;;;;;;;0.21;100.00;102283.88;6248444;28;20049;-80
2022/03/06 01:21:07;;;;;;;3.63;2.10;;;;;;;0.24;100.00;102275.31;6247334;28;20064;-80
2022/03/06 01:24:08;;;;;;;4.00;2.15;;;;;;;0.27;100.00;102283.06;6210888;28;20485;-79
2022/03/06 01:27:11;;;;;;;2.47;1.67;;;;;;;0.33;100.00;102287.50;6205789;28;20042;-80
2022/03/06 01:30:15;;;;;;;2.67;1.75;;;;;;;0.37;100.00;102282.38;6247333;28;20056;-80
2022/03/06 01:33:16;;;;;;;3.60;2.08;;;;;;;0.39;100.00;102285.84;6247624;28;20106;-80
2022/03/06 01:36:18;;;;;;;1.45;1.35;;;;;;;0.42;100.00;102282.44;6247615;28;20053;-80
2022/03/06 01:39:19;;;;;;;2.50;1.50;;;;;;;0.45;100.00;102285.91;6247835;28;20052;-80
2022/03/06 01:42:22;;;;;;;3.08;1.85;;;;;;;0.49;100.00;102285.09;6246843;28;20054;-80
2022/03/06 01:45:24;;;;;;;2.55;1.92;;;;;;;0.50;100.00;102292.03;6247505;28;20493;-80
2022/03/06 01:48:25;;;;;;;3.70;1.52;;;;;;;0.48;100.00;102283.38;6247621;28;20136;-81
2022/03/06 01:51:27;;;;;;;4.15;1.92;;;;;;;0.49;100.00;102281.66;6246731;28;20057;-81
2022/03/06 01:54:29;;;;;;;3.25;1.85;;;;;;;0.55;100.00;102286.06;6247672;28;20056;-80
2022/03/06 01:57:33;;;;;;;3.50;1.88;;;;;;;0.60;100.00;102287.84;6247859;28;20068;-80
2022/03/06 02:00:39;;;;;;;5.47;2.17;;;;;;;0.56;100.00;102292.97;6246858;28;20447;-80
2022/03/06 02:03:40;;;;;;;3.78;2.25;;;;;;;0.57;100.00;102292.09;6223005;28;20068;-80
2022/03/06 02:06:42;;;;;;;3.45;2.10;;;;;;;0.59;100.00;102291.28;6223000;28;20042;-80
2022/03/06 02:09:44;;;;;;;4.93;1.95;;;;;;;0.62;100.00;102287.84;6222731;28;20049;-80
2022/03/06 02:12:47;;;;;;;2.60;1.80;;;;;;;0.66;100.00;102282.75;6222477;28;20054;-80
2022/03/06 02:15:49;;;;;;;3.92;2.25;;;;;;;0.68;100.00;102281.06;6223054;28;20521;-80
2022/03/06 02:18:50;;;;;;;5.35;2.22;;;;;;;0.72;100.00;102276.75;6222778;28;20417;-80
2022/03/06 02:21:53;;;;;;;3.40;1.60;;;;;;;0.73;100.00;102276.81;6222184;28;20049;-80
2022/03/06 02:24:55;;;;;;;6.78;2.17;;;;;;;0.70;100.00;102271.59;6222739;28;20497;-80
2022/03/06 02:27:58;;;;;;;4.38;1.70;;;;;;;0.70;100.00;102276.75;6222742;28;20529;-80
2022/03/06 02:31:00;;;;;;;2.92;2.00;;;;;;;0.69;100.00;102275.03;6222199;28;20049;-80
2022/03/06 02:34:02;;;;;;;5.50;2.67;;;;;;;0.70;100.00;102271.59;6222920;28;20050;-80
2022/03/06 02:37:05;;;;;;;7.10;2.47;;;;;;;0.72;100.00;102275.03;6222800;28;20054;-80
2022/03/06 02:40:09;;;;;;;4.65;2.55;;;;;;;0.74;100.00;102268.19;6226091;28;20089;-80
2022/03/06 02:43:13;;;;;;;4.45;2.20;;;;;;;0.78;100.00;102269.09;6227175;28;20042;-79
2022/03/06 02:46:14;;;;;;;6.00;2.22;;;;;;;0.76;100.00;102266.47;6190350;28;20052;-80
2022/03/06 02:49:18;;;;;;;4.47;1.70;;;;;;;0.79;100.00;102265.66;6186753;28;20056;-80
2022/03/06 02:52:21;;;;;;;4.82;1.95;;;;;;;0.84;100.00;102265.69;6143675;28;20050;-81
2022/03/06 02:55:23;;;;;;;4.55;2.55;;;;;;;0.85;100.00;102262.25;6227294;28;20410;-80
2022/03/06 02:58:24;;;;;;;4.40;1.52;;;;;;;0.85;100.00;102270.88;6205715;28;20042;-80
2022/03/06 03:01:26;;;;;;;2.53;1.40;;;;;;;0.86;100.00;102266.56;6188822;28;20069;-80
2022/03/06 03:04:27;;;;;;;3.88;1.52;;;;;;;0.87;100.00;102261.44;6227266;28;20057;-80
2022/03/06 03:07:30;;;;;;;2.40;1.80;;;;;;;0.89;100.00;102259.72;6221614;28;20050;-80
2022/03/06 03:10:31;;;;;;;5.10;2.05;;;;;;;0.93;100.00;102263.22;6143643;28;20515;-80
2022/03/06 03:13:32;;;;;;;2.38;1.20;;;;;;;0.94;100.00;102263.22;6102984;29;20063;-80
2022/03/06 03:16:34;;;;;;;3.15;1.58;;;;;;;0.93;100.00;102264.06;6103001;29;20056;-81
2022/03/06 03:19:35;;;;;;;2.50;1.70;;;;;;;0.93;100.00;102256.31;6103156;29;20052;-80
2022/03/06 03:22:38;;;;;;;3.92;1.35;;;;;;;0.93;100.00;102255.44;6102635;29;20056;-80
2022/03/06 03:25:40;;;;;;;2.35;1.52;;;;;;;0.94;100.00;102255.47;6103075;29;20052;-81
2022/03/06 03:28:41;;;;;;;1.85;1.48;;;;;;;0.97;100.00;102254.63;6102944;29;20063;-80
2022/03/06 03:31:42;;;;;;;3.63;1.58;;;;;;;0.99;100.00;102258.09;6102164;29;20052;-80
2022/03/06 03:34:44;;;;;;;1.60;1.30;;;;;;;0.98;100.00;102262.41;6118388;28;20076;-79
2022/03/06 03:37:46;;;;;;;2.65;1.52;;;;;;;0.97;100.00;102254.63;6226528;28;20050;-80
2022/03/06 03:40:48;;;;;;;4.97;1.55;;;;;;;0.95;100.00;102254.63;6225520;28;20046;-80
2022/03/06 03:43:49;;;;;;;2.70;1.48;;;;;;;0.95;100.00;102254.63;6225625;28;20391;-81
2022/03/06 03:46:51;;;;;;;5.93;2.00;;;;;;;0.95;100.00;102256.31;6226087;28;20050;-80
2022/03/06 03:49:52;;;;;;;2.15;1.15;;;;;;;0.97;100.00;102259.81;6224826;28;20425;-80
2022/03/06 03:52:55;;;;;;;2.58;1.30;;;;;;;0.95;100.00;102264.97;6238368;28;20133;-80
2022/03/06 03:55:56;;;;;;;2.25;1.50;;;;;;;0.94;100.00;102270.97;6237131;28;20049;-81
2022/03/06 03:58:58;;;;;;;5.15;1.48;;;;;;;0.92;100.00;102264.94;6236727;28;20054;-80
2022/03/06 04:01:59;;;;;;;7.70;1.63;;;;;;;0.94;100.00;102270.13;6228533;28;20046;-80
2022/03/06 04:05:01;;;;;;;1.08;1.00;;;;;;;0.93;100.00;102273.56;6167539;28;20059;-81
2022/03/06 04:08:04;;;;;;;6.15;1.60;;;;;;;0.91;100.00;102267.47;6185122;28;20059;-80
2022/03/06 04:11:06;;;;;;;4.32;1.83;;;;;;;0.85;100.00;102265.72;6214059;28;20421;-80
2022/03/06 04:14:07;;;;;;;2.92;1.42;;;;;;;0.88;100.00;102265.75;6200000;28;20052;-80
2022/03/06 04:17:09;;;;;;;2.22;1.48;;;;;;;0.87;100.00;102264.03;6143135;28;20052;-81
2022/03/06 04:20:11;;;;;;;1.33;1.17;;;;;;;0.86;100.00;102264.84;6101851;29;20049;-81
2022/03/06 04:23:14;;;;;;;1.10;1.00;;;;;;;0.87;100.00;102273.50;6101741;29;20064;-80
2022/03/06 04:26:15;;;;;;;5.75;1.52;;;;;;;0.90;100.00;102273.53;6139054;28;20056;-80
2022/03/06 04:29:16;;;;;;;1.60;1.38;;;;;;;0.91;100.00;102273.56;6224832;28;20050;-80
2022/03/06 04:32:18;;;;;;;2.15;1.23;;;;;;;0.88;100.00;102276.09;6224348;28;20061;-80
2022/03/06 04:35:20;;;;;;;3.17;1.70;;;;;;;0.82;100.00;102277.72;6224859;28;20050;-79
2022/03/06 04:38:22;;;;;;;2.00;1.40;;;;;;;0.80;100.00;102282.03;6224934;28;20065;-79
2022/03/06 04:41:24;;;;;;;2.13;1.23;;;;;;;0.79;100.00;102286.34;6223964;28;20045;-81
2022/03/06 04:44:27;;;;;;;1.95;1.40;;;;;;;0.77;100.00;102298.38;6202883;28;20049;-80
2022/03/06 04:47:28;;;;;;;2.88;1.75;;;;;;;0.76;100.00;102301.81;6118367;28;20056;-80
2022/03/06 04:50:30;;;;;;;4.43;1.23;;;;;;;0.77;100.00;102306.16;6096769;28;20052;-80
2022/03/06 04:53:33;;;;;;;1.75;1.50;;;;;;;0.76;100.00;102307.00;6125479;28;20063;-79
2022/03/06 04:56:35;;;;;;;1.48;1.20;;;;;;;0.66;100.00;102316.38;6085266;29;20052;-81
2022/03/06 04:59:37;;;;;;;1.50;1.08;;;;;;;0.59;100.00;102319.75;6085756;29;20132;-81
2022/03/06 05:02:38;;;;;;;1.52;1.40;;;;;;;0.62;100.00;102322.34;6077250;28;20512;-80
2022/03/06 05:05:40;;;;;;;2.17;1.52;;;;;;;0.62;100.00;102322.34;6078270;29;20049;-80
2022/03/06 05:08:42;;;;;;;2.60;1.98;;;;;;;0.62;100.00;102329.25;6078012;29;20053;-80
2022/03/06 05:11:44;;;;;;;2.53;1.30;;;;;;;0.63;100.00;102330.97;6076851;28;20052;-80
2022/03/06 05:14:45;;;;;;;2.17;1.30;;;;;;;0.58;100.00;102333.50;6131344;28;20070;-80
2022/03/06 05:17:47;;;;;;;2.00;1.27;;;;;;;0.54;100.00;102333.44;6100985;29;20056;-80
2022/03/06 05:20:49;;;;;;;3.45;1.58;;;;;;;0.55;100.00;102327.44;6100268;29;20071;-80
2022/03/06 05:23:53;;;;;;;1.00;0.90;;;;;;;0.57;100.00;102318.84;6093032;28;20049;-79
2022/03/06 05:26:54;;;;;;;2.95;1.48;;;;;;;0.56;100.00;102324.00;6100067;28;20067;-80
2022/03/06 05:29:56;;;;;;;1.88;1.08;;;;;;;0.56;100.00;102329.19;6086464;29;20091;-80
2022/03/06 05:32:57;;;;;;;4.07;1.83;;;;;;;0.45;100.00;102329.88;6089251;29;20523;-80
2022/03/06 05:35:58;;;;;;;7.22;2.00;;;;;;;0.41;100.00;102322.94;6078910;28;20057;-80
2022/03/06 05:39:01;;;;;;;1.83;1.27;;;;;;;0.37;100.00;102328.94;6077450;29;20052;-80
2022/03/06 05:42:03;;;;;;;1.42;1.15;;;;;;;0.36;100.00;102323.72;6076676;29;20184;-80
2022/03/06 05:45:06;;;;;;;1.63;1.40;;;;;;;0.34;100.00;102322.84;6077287;29;20067;-81
2022/03/06 05:48:07;;;;;;;8.95;1.88;;;;;;;0.33;100.00;102327.13;6076948;28;20063;-81
2022/03/06 05:51:08;;;;;;;4.40;1.02;;;;;;;0.34;100.00;102328.88;6076126;28;20053;-80
2022/03/06 05:54:12;;;;;;;2.22;1.15;;;;;;;0.33;100.00;102339.19;6076875;28;20052;-80
2022/03/06 05:57:13;;;;;;;2.25;1.42;;;;;;;0.28;100.00;102335.69;6077199;29;20063;-80
2022/03/06 06:00:17;;;;;;;1.88;1.10;;;;;;;0.27;100.00;102341.69;6076450;28;20056;-80
2022/03/06 06:03:19;;;;;;;1.73;1.33;;;;;;;0.29;100.00;102343.44;6076876;28;20060;-80
2022/03/06 06:06:20;;;;;;;2.75;1.58;;;;;;;0.34;100.00;102349.56;6077042;29;20052;-81
2022/03/06 06:09:23;;;;;;;3.05;1.77;;;;;;;0.36;100.00;102360.78;6076705;28;20420;-81
2022/03/06 06:12:24;;;;;;;4.28;2.03;;;;;;;0.37;100.00;102361.69;6076006;28;20493;-80
2022/03/06 06:15:25;;;;;;;1.40;1.10;;;;;;;0.42;100.00;102360.03;6076082;28;20076;-81
2022/03/06 06:18:30;;;;;;;3.00;1.23;;;;;;;0.40;100.00;102370.31;6076878;29;20053;-80
2022/03/06 06:21:32;;;;;;;2.13;1.02;;;;;;;0.42;100.00;102370.38;6076289;29;20144;-80
2022/03/06 06:24:34;;;;;;;1.85;1.10;;;;;;;0.43;100.00;102369.50;6076621;28;20059;-80
2022/03/06 06:27:36;;;;;;;6.15;1.40;;;;;;;0.46;100.00;102366.97;6076811;29;20053;-80
2022/03/06 06:30:37;;;;;;;3.25;2.13;;;;;;;0.47;100.00;102369.56;6076087;29;20049;-80
2022/03/06 06:33:38;;;;;;;3.03;1.75;;;;;;;0.46;100.00;102365.25;6076558;29;20056;-80
2022/03/06 06:36:40;;;;;;;2.35;1.67;;;;;;;0.46;100.00;102369.56;6081294;29;20049;-80
2022/03/06 06:39:43;;;;;;;1.67;1.13;;;;;;;0.48;100.00;102373.03;6083564;29;20059;-80
2022/03/06 06:42:45;;;;;;;2.10;1.23;;;;;;;0.47;100.00;102377.34;6086116;28;20052;-81
2022/03/06 06:45:47;;;;;;;1.58;1.13;;;;;;;0.43;100.00;102375.56;6083079;28;20052;-80
2022/03/06 06:48:48;;;;;;;1.95;1.33;;;;;;;0.44;100.00;102373.81;6121460;28;20058;-81
2022/03/06 06:51:50;;;;;;;3.40;1.48;;;;;;;0.44;100.00;102379.88;6126917;28;20052;-80
2022/03/06 06:54:52;;;;;;;3.00;1.42;;;;;;;0.45;100.00;102383.31;6093654;28;20048;-81
2022/03/06 06:57:54;;;;;;;3.90;1.30;;;;;;;0.48;100.00;102384.25;6204738;28;20057;-80
2022/03/06 07:00:55;;;;;;;5.57;1.70;;;;;;;0.50;100.00;102377.38;6181235;28;20042;-81
2022/03/06 07:03:58;;;;;;;3.60;1.75;;;;;;;0.49;100.00;102385.09;6115721;28;20521;-80
2022/03/06 07:06:59;;;;;;;2.33;1.48;;;;;;;0.55;100.00;102392.09;6099651;29;20056;-80
2022/03/06 07:10:02;;;;;;;3.03;1.70;;;;;;;0.57;100.00;102391.25;6126430;28;20049;-80
2022/03/06 07:13:03;;;;;;;1.75;0.90;;;;;;;0.56;100.00;102402.47;6110794;28;20052;-80
2022/03/06 07:16:06;;;;;;;2.38;1.45;;;;;;;0.57;100.00;102403.34;6099505;29;20056;-79
2022/03/06 07:19:08;;;;;;;2.80;1.35;;;;;;;0.63;100.00;102411.16;6099208;29;20055;-80
2022/03/06 07:22:09;;;;;;;3.95;1.95;;;;;;;0.71;100.00;102413.03;6098067;29;20052;-80
2022/03/06 07:25:12;;;;;;;3.00;1.60;;;;;;;0.77;100.00;102417.41;6099509;29;20048;-80
2022/03/06 07:28:13;;;;;;;3.38;1.77;;;;;;;0.82;100.00;102414.88;6103006;29;20063;-81
2022/03/06 07:31:14;;;;;;;4.35;1.63;;;;;;;0.88;100.00;102433.09;6102212;28;20048;-81
2022/03/06 07:34:16;;;;;;;1.92;1.10;;;;;;;0.85;100.00;102433.91;6144023;28;20063;-80
2022/03/06 07:37:18;;;;;;;1.85;1.23;;;;;;;0.89;100.00;102433.09;6224099;28;20050;-80
2022/03/06 07:40:22;;;;;;;2.50;1.35;;;;;;;1.00;100.00;102443.63;6225555;28;20103;-81
2022/03/06 07:43:24;;;;;;;1.92;1.10;;;;;;;1.02;100.00;102441.91;6226581;28;20046;-80
2022/03/06 07:46:25;;;;;;;3.30;1.60;;;;;;;1.01;100.00;102441.06;6226702;28;20050;-80
2022/03/06 07:49:26;;;;;;;3.92;1.33;;;;;;;1.07;100.00;102442.84;6226329;28;20046;-81
2022/03/06 07:52:28;;;;;;;4.80;1.48;;;;;;;1.05;100.00;102448.88;6225832;28;20057;-80
2022/03/06 07:55:30;;;;;;;1.63;1.17;;;;;;;1.09;100.00;102455.81;6226514;28;20054;-81
2022/03/06 07:58:32;;;;;;;3.60;1.80;;;;;;;1.09;100.00;102455.81;6226453;28;20053;-80
2022/03/06 08:01:33;;;;;;;2.85;1.52;;;;;;;1.12;100.00;102456.72;6225242;28;20046;-80
2022/03/06 08:04:35;;;;;;;2.55;1.50;;;;;;;1.08;98.92;102460.09;6226052;28;20049;-79
2022/03/06 08:07:37;;;;;;;2.17;1.48;;;;;;;1.14;100.00;102459.34;6225894;28;20050;-80
2022/03/06 08:10:39;;;;;;;3.00;1.52;;;;;;;1.19;100.00;102465.44;6148498;28;20048;-80
2022/03/06 08:13:41;;;;;;;2.28;1.83;;;;;;;1.21;100.00;102464.59;6103317;28;20057;-80
2022/03/06 08:16:42;;;;;;;1.35;1.20;;;;;;;1.31;100.00;102468.16;6133981;28;20049;-80
2022/03/06 08:19:44;;;;;;;17.35;5.25;;;;;;;1.43;99.68;102468.34;6126687;28;20056;-81
2022/03/06 08:22:46;;;;;;;11.20;5.15;;;;;;;1.46;97.31;102468.38;6101095;29;20316;-79
2022/03/06 08:25:48;;;;;;;12.60;4.80;;;;;;;1.43;95.88;102465.75;6099390;29;20052;-80
2022/03/06 08:28:50;;;;;;;26.33;6.28;;;;;;;1.52;98.15;102467.56;6112559;28;20061;-80
2022/03/06 08:31:51;;;;;;;27.85;7.22;;;;;;;1.59;95.89;102469.41;6090643;28;20094;-79
2022/03/06 08:34:53;;;;;;;5.75;2.42;;;;;;;1.58;95.01;102469.38;6087416;29;20496;-79
2022/03/06 08:37:54;;;;;;;5.35;2.28;;;;;;;1.64;95.16;102470.31;6094344;29;20044;-80
2022/03/06 08:40:57;;;;;;;2.22;1.40;;;;;;;1.68;93.41;102472.09;6084023;28;20409;-80
2022/03/06 08:43:58;;;;;;;1.92;1.27;;;;;;;1.70;92.93;102477.28;6093517;29;20051;-79
2022/03/06 08:46:59;;;;;;;2.20;1.50;;;;;;;1.68;91.52;102486.75;6127324;28;20060;-79
2022/03/06 08:50:01;;;;;;;2.60;1.52;;;;;;;1.69;93.82;102483.31;6155620;28;20393;-79
2022/03/06 08:53:02;;;;;;;1.67;1.10;;;;;;;1.74;92.93;102481.66;6120343;28;20045;-80
2022/03/06 08:56:05;;;;;;;4.18;1.90;;;;;;;1.82;92.42;102485.22;6170597;28;20053;-79
2022/03/06 08:59:06;;;;;;;1.77;1.50;;;;;;;1.92;92.01;102488.75;6144009;28;20047;-81
2022/03/06 09:02:07;;;;;;;2.30;1.42;;;;;;;1.98;91.82;102479.31;6094431;28;20416;-81
2022/03/06 09:05:09;;;;;;;1.92;1.60;;;;;;;2.07;90.49;102477.66;6175233;28;20493;-80
2022/03/06 09:08:11;;;;;;;2.45;1.88;;;;;;;2.10;90.39;102478.56;6153928;28;20052;-81
2022/03/06 09:11:14;;;;;;;1.70;1.60;;;;;;;2.21;89.65;102483.84;6085013;29;20056;-81
2022/03/06 09:14:15;;;;;;;2.45;1.40;;;;;;;2.21;89.19;102478.66;6081102;29;20075;-80
2022/03/06 09:17:17;;;;;;;3.05;1.63;;;;;;;2.23;89.06;102483.03;6080868;29;20401;-81
2022/03/06 09:20:18;;;;;;;2.53;1.35;;;;;;;2.27;88.24;102489.06;6080039;29;20481;-81
2022/03/06 09:23:19;;;;;;;2.38;1.27;;;;;;;2.24;87.07;102481.28;6080975;29;20053;-81
2022/03/06 09:26:22;;;;;;;1.75;0.80;;;;;;;2.34;88.77;102477.06;6084429;29;20059;-80
2022/03/06 09:29:23;;;;;;;1.67;1.08;;;;;;;2.41;86.45;102478.84;6103608;28;20056;-79
2022/03/06 09:32:25;;;;;;;1.85;1.55;;;;;;;2.45;86.99;102484.06;6103018;28;20048;-79
2022/03/06 09:35:27;;;;;;;3.75;1.27;;;;;;;2.51;85.40;102480.66;6103317;28;20079;-80
2022/03/06 09:38:29;;;;;;;1.77;1.08;;;;;;;2.55;85.39;102477.22;6103772;29;20506;-81
2022/03/06 09:41:32;;;;;;;3.70;1.10;;;;;;;2.61;85.47;102484.19;6102774;29;20427;-80
2022/03/06 09:44:36;;;;;;;1.48;1.00;;;;;;;2.66;84.25;102493.75;6102972;28;20524;-80
2022/03/06 09:47:39;;;;;;;2.00;1.15;;;;;;;2.63;86.43;102493.69;6102596;29;20106;-80
2022/03/06 09:50:40;;;;;;;1.92;1.20;;;;;;;2.66;85.61;102487.69;6102701;29;20059;-80
2022/03/06 09:53:41;;;;;;;1.17;0.73;;;;;;;2.85;85.45;102491.28;6102893;29;20072;-80
2022/03/06 09:56:45;;;;;;;1.90;1.40;;;;;;;2.95;84.34;102487.88;6103211;28;20577;-80
2022/03/06 09:59:46;;;;;;;1.20;1.08;;;;;;;2.92;82.57;102485.28;6103127;28;20055;-81
2022/03/06 10:02:51;;;;;;;3.20;1.48;;;;;;;3.03;80.88;102481.00;6102118;28;20484;-81
2022/03/06 10:05:53;;;;;;;2.70;1.58;;;;;;;3.05;80.50;102481.88;6138613;28;20389;-79
2022/03/06 10:09:04;;;;;;;1.52;0.90;;;;;;;3.16;79.70;102480.22;6122066;28;20056;-80
2022/03/06 10:12:18;;;;;;;1.58;1.02;;;;;;;3.18;79.14;102480.19;6128632;28;20042;-81
2022/03/06 10:15:19;;;;;;;2.85;1.55;;;;;;;3.21;78.19;102486.28;6141633;28;20520;-80
2022/03/06 10:18:21;;;;;;;2.80;1.65;;;;;;;3.23;76.49;102482.00;6222625;28;20053;-79
2022/03/06 10:21:24;;;;;;;2.75;1.05;;;;;;;3.33;75.94;102479.44;6102101;28;20048;-78
2022/03/06 10:24:26;;;;;;;7.53;1.17;;;;;;;3.44;73.99;102482.94;6106435;29;20541;-80
2022/03/06 10:27:47;;;;;;;7.10;1.45;;;;;;;3.35;72.98;102485.50;6094803;28;20053;-78
2022/03/06 10:30:49;;;;;;;4.55;1.67;;;;;;;3.41;72.67;102480.34;6141745;28;20401;-79
2022/03/06 10:34:00;;;;;;;3.97;2.00;;;;;;;3.52;71.61;102486.44;6095848;28;20044;-79
2022/03/06 10:37:02;;;;;;;3.13;1.48;;;;;;;3.65;72.93;102482.16;6095644;29;20499;-79
2022/03/06 10:40:03;;;;;;;2.95;1.38;;;;;;;3.62;72.88;102476.94;6139720;28;20052;-78
2022/03/06 10:43:18;;;;;;;1.70;1.35;;;;;;;3.79;72.61;102483.91;6098655;28;20052;-79
2022/03/06 10:46:21;;;;;;;3.15;1.42;;;;;;;3.95;71.71;102481.34;6095920;28;20160;-78
2022/03/06 10:49:23;;;;;;;2.70;1.50;;;;;;;3.97;70.89;102485.69;6095106;28;20110;-79
2022/03/06 10:52:24;;;;;;;2.60;1.23;;;;;;;4.16;69.42;102489.19;6093372;29;20071;-76
2022/03/06 10:55:33;;;;;;;3.80;1.58;;;;;;;4.19;70.06;102489.22;6094269;28;20052;-76
2022/03/06 10:58:39;;;;;;;4.05;1.25;;;;;;;4.23;69.44;102503.97;6096883;28;20041;-77
2022/03/06 11:01:41;;;;;;;3.80;1.42;;;;;;;4.10;68.63;102494.41;6095867;29;20494;-75
2022/03/06 11:04:44;;;;;;;4.15;1.88;;;;;;;4.08;66.70;102504.78;6110702;29;20048;-78
2022/03/06 11:07:46;;;;;;;2.92;1.80;;;;;;;4.00;66.57;102498.72;6105046;29;20056;-77
2022/03/06 11:10:48;;;;;;;3.60;1.73;;;;;;;3.85;66.99;102497.81;6084156;29;20529;-82
2022/03/06 11:13:54;;;;;;;4.65;1.48;;;;;;;3.91;71.05;102492.63;6079884;29;20052;-83
2022/03/06 11:16:55;;;;;;;3.92;1.30;;;;;;;3.96;67.44;102491.78;6080889;29;20055;-81
2022/03/06 11:19:56;;;;;;;3.00;1.83;;;;;;;4.00;69.02;102485.72;6087076;28;20478;-81
2022/03/06 11:23:07;;;;;;;4.03;1.92;;;;;;;3.93;67.02;102478.75;6079889;29;20053;-82
2022/03/06 11:26:37;;;;;;;2.63;1.80;;;;;;;4.02;65.43;102483.09;6088169;29;20060;-82
2022/03/06 11:29:54;;;;;;;;;;;;;;;3.91;64.22;102479.63;6100430;29;20132;-80
2022/03/06 11:33:05;;;;;;;4.03;1.98;;;;;;;3.90;63.94;102475.28;6102761;29;19931;-81
2022/03/06 11:36:19;;;;;;;3.22;1.70;;;;;;;3.83;64.12;102482.22;6103193;29;20048;-81
2022/03/06 11:39:53;;;;;;;4.68;2.08;;;;;;;3.70;65.03;102483.03;6103386;28;20178;-81
2022/03/06 11:42:57;;;;;;;3.58;2.40;;;;;;;3.61;65.07;102480.41;6103058;28;20056;-82
2022/03/06 11:46:16;;;;;;;6.25;2.08;;;;;;;3.58;64.85;102485.59;6103295;28;20049;-81
2022/03/06 11:49:17;;;;;;;4.05;2.38;;;;;;;3.63;64.88;102474.31;6102918;28;20574;-80
2022/03/06 11:52:29;;;;;;;4.53;2.38;;;;;;;3.75;63.72;102479.56;6101988;29;20044;-81
2022/03/06 11:55:32;;;;;;;2.75;1.80;;;;;;;3.88;62.52;102466.63;6102953;29;20059;-82
2022/03/06 11:58:53;;;;;;;4.38;2.63;;;;;;;4.03;60.34;102466.63;6102916;29;20086;-81
2022/03/06 12:01:57;;;;;;;4.28;2.13;;;;;;;4.09;60.77;102461.47;6101976;28;20059;-81
2022/03/06 12:04:58;;;;;;;4.63;2.42;;;;;;;4.21;60.65;102452.78;6102996;29;20055;-82
2022/03/06 12:08:17;;;;;;;2.65;1.85;;;;;;;4.54;58.34;102452.78;6102458;29;20052;-82
2022/03/06 12:11:19;;;;;;;3.90;2.35;;;;;;;5.22;58.69;102452.59;6101584;29;20062;-82
2022/03/06 12:14:23;;;;;;;3.22;2.00;;;;;;;5.47;55.61;102448.16;6143300;28;20525;-81
2022/03/06 12:17:31;;;;;;;4.65;2.95;;;;;;;5.54;55.40;102435.09;6116471;28;20045;-81
2022/03/06 12:20:44;;;;;;;6.03;2.90;;;;;;;5.32;56.88;102444.75;6204137;28;20056;-81
2022/03/06 12:23:46;;;;;;;4.68;2.17;;;;;;;4.91;57.84;102441.44;6108695;28;20052;-81
2022/03/06 12:26:48;;;;;;;7.65;2.40;;;;;;;4.71;58.84;102444.06;6118592;28;20069;-80
2022/03/06 12:29:58;;;;;;;3.00;1.75;;;;;;;4.41;58.03;102434.56;6118027;28;20419;-81
2022/03/06 12:33:32;;;;;;;3.60;2.22;;;;;;;4.31;57.83;102439.78;6103158;28;20533;-77
2022/03/06 12:36:33;;;;;;;3.05;1.98;;;;;;;4.12;57.80;102438.03;6102742;29;20455;-79
2022/03/06 12:39:37;;;;;;;3.60;1.90;;;;;;;4.47;58.08;102435.41;6109638;28;20500;-81
2022/03/06 12:42:40;;;;;;;6.20;2.80;;;;;;;4.81;56.84;102437.97;6108217;28;20049;-80
2022/03/06 12:45:42;;;;;;;4.38;1.90;;;;;;;5.47;55.39;102430.78;6090159;28;20059;-80
2022/03/06 12:48:48;;;;;;;3.67;1.85;;;;;;;5.08;55.20;102429.19;6101246;28;20048;-79
2022/03/06 12:51:52;;;;;;;3.05;1.67;;;;;;;4.63;56.00;102438.00;6107154;28;20046;-81
2022/03/06 12:54:55;;;;;;;3.30;1.70;;;;;;;5.21;55.61;102423.06;6122665;28;20041;-79
2022/03/06 12:57:59;;;;;;;2.08;1.20;;;;;;;5.65;52.87;102416.78;6140208;28;20142;-80
2022/03/06 13:01:06;;;;;;;2.03;1.42;;;;;;;6.33;52.42;102422.41;6109886;28;20488;-79
2022/03/06 13:04:09;;;;;;;2.05;1.42;;;;;;;6.61;48.93;102421.25;6102732;29;20044;-80
2022/03/06 13:07:11;;;;;;;1.95;1.38;;;;;;;7.09;47.53;102413.78;6095465;29;20044;-80
2022/03/06 13:10:14;;;;;;;2.25;1.48;;;;;;;7.41;46.80;102411.63;6097602;29;20059;-81
2022/03/06 13:13:15;;;;;;;4.72;1.42;;;;;;;7.53;48.91;102396.59;6141340;28;20051;-79
2022/03/06 13:16:24;;;;;;;2.13;1.40;;;;;;;7.28;46.95;102395.22;6106305;29;20063;-80
2022/03/06 13:19:27;;;;;;;3.30;1.80;;;;;;;6.83;47.48;102389.69;6107319;29;20063;-79
2022/03/06 13:22:28;;;;;;;1.80;1.20;;;;;;;7.07;47.91;102392.00;6106540;29;20066;-80
2022/03/06 13:25:37;;;;;;;5.45;1.70;;;;;;;6.78;48.96;102396.72;6105707;29;20048;-79
2022/03/06 13:28:38;;;;;;;3.28;2.15;;;;;;;6.86;48.43;102392.28;6110629;29;20055;-80
2022/03/06 13:31:44;;;;;;;4.75;2.10;;;;;;;7.07;47.13;102385.91;6104893;29;20451;-79
2022/03/06 13:34:47;;;;;;;28.90;7.75;;;;;;;6.90;47.57;102388.72;6100569;28;20051;-79
2022/03/06 13:37:48;;;;;;;7.38;2.78;;;;;;;7.08;47.89;102388.50;6100699;28;20048;-79
2022/03/06 13:40:51;;;;;;;4.22;2.63;;;;;;;7.41;45.54;102381.13;6099925;29;20428;-79
2022/03/06 13:43:53;;;;;;;2.30;1.40;;;;;;;7.72;45.29;102380.63;6100312;29;20044;-79
2022/03/06 13:46:54;;;;;;;2.78;1.42;;;;;;;7.57;45.84;102376.50;6100470;29;20409;-80
2022/03/06 13:50:01;;;;;;;2.35;1.40;;;;;;;7.49;46.82;102375.75;6167702;28;20051;-79
2022/03/06 13:53:04;;;;;;;2.78;2.03;;;;;;;7.84;45.24;102368.25;6181490;28;20047;-80
2022/03/06 13:56:07;;;;;;;2.22;1.42;;;;;;;7.77;45.98;102365.75;6140197;28;20052;-80
2022/03/06 13:59:11;;;;;;;1.67;1.20;;;;;;;7.50;46.43;102365.28;6109866;29;20064;-79
2022/03/06 14:02:13;;;;;;;1.80;1.35;;;;;;;7.00;47.32;102372.06;6176574;28;20060;-79
2022/03/06 14:05:15;;;;;;;3.90;1.63;;;;;;;6.85;47.51;102362.63;6211109;28;20049;-79
2022/03/06 14:08:19;;;;;;;3.40;1.70;;;;;;;7.09;47.99;102366.72;6117582;28;20060;-79
2022/03/06 14:11:24;;;;;;;2.03;1.50;;;;;;;7.67;46.07;102366.78;6107086;29;20431;-79
2022/03/06 14:14:34;;;;;;;1.30;1.00;;;;;;;7.65;46.21;102358.09;6095401;29;20048;-79
2022/03/06 14:17:37;;;;;;;1.70;1.20;;;;;;;7.17;46.01;102361.38;6115417;29;20055;-79